Time;durP1;ratioP1;P1;durP2;ratioP2;P2;SDS_P1;SDS_P2;PMS_P1;PMS_P2;Temp;Humidity;BMP_temperature;BMP_pressure;BME280_temperature;BME280_humidity;BME280_pressure;Samples;Min_cycle;Max_cycle;Signal;HPM_P1;HPM_P2
2022/07/23 00:00:34;;;;;;;15.90;9.90;;;;;;;20.64;66.13;97954.25;105674;1281;23673;-87
2022/07/23 00:03:06;;;;;;;11.50;10.10;;;;;;;20.61;66.21;97949.97;105730;1280;22567;-89
2022/07/23 00:05:35;;;;;;;16.30;11.10;;;;;;;20.56;66.36;97942.98;105673;1281;24397;-85
2022/07/23 00:08:06;;;;;;;13.60;11.10;;;;;;;20.50;66.48;97945.83;105619;1280;25487;-84
2022/07/23 00:10:41;;;;;;;12.50;10.80;;;;;;;20.43;66.60;97948.36;105297;1282;22562;-84
2022/07/23 00:13:09;;;;;;;14.40;11.80;;;;;;;20.40;66.84;97949.16;105493;1282;25389;-87
2022/07/23 00:15:37;;;;;;;17.50;11.50;;;;;;;20.39;66.95;97954.55;105236;1283;22531;-86
2022/07/23 00:18:05;;;;;;;14.20;10.20;;;;;;;20.40;67.32;97955.95;105485;1282;25244;-86
2022/07/23 00:20:33;;;;;;;13.10;10.80;;;;;;;20.44;67.33;97962.68;105786;1281;25953;-87
2022/07/23 00:23:02;;;;;;;14.90;10.90;;;;;;;20.56;67.30;97965.42;105867;1280;25417;-87
2022/07/23 00:25:29;;;;;;;16.80;10.50;;;;;;;20.63;67.02;97970.34;105961;1280;22705;-91
2022/07/23 00:27:59;;;;;;;16.80;10.30;;;;;;;20.59;67.00;97969.41;106134;1280;24252;-90
2022/07/23 00:30:29;;;;;;;11.10;10.00;;;;;;;20.59;67.15;97970.20;106023;1280;22647;-92
2022/07/23 00:33:03;;;;;;;11.70;10.50;;;;;;;20.64;67.16;97971.69;105923;1280;24556;-92
2022/07/23 00:35:36;;;;;;;14.20;10.60;;;;;;;20.74;67.18;97970.62;106230;1281;22694;-91
2022/07/23 00:38:04;;;;;;;11.10;10.10;;;;;;;20.81;67.12;97968.80;105908;1280;22553;-88
2022/07/23 00:40:34;;;;;;;12.70;10.70;;;;;;;20.86;66.96;97966.69;105837;1281;24249;-90
2022/07/23 00:43:02;;;;;;;13.20;10.70;;;;;;;20.82;66.71;97961.68;105716;1281;25239;-88
2022/07/23 00:45:31;;;;;;;11.90;10.40;;;;;;;20.74;66.65;97963.65;105844;1281;22675;-89
2022/07/23 00:48:00;;;;;;;19.80;11.60;;;;;;;20.55;66.65;97960.95;105632;1281;22588;-88
2022/07/23 00:50:29;;;;;;;16.60;11.70;;;;;;;20.35;67.04;97965.48;105278;1281;25401;-90
2022/07/23 00:52:58;;;;;;;13.50;10.90;;;;;;;20.31;67.83;97963.30;105254;1281;22697;-90
2022/07/23 00:55:26;;;;;;;11.60;10.50;;;;;;;20.43;69.09;97959.23;105677;1281;24247;-91
2022/07/23 00:57:55;;;;;;;15.00;10.50;;;;;;;20.61;67.88;97958.73;105436;1281;22798;-89
2022/07/23 01:00:25;;;;;;;12.10;10.60;;;;;;;20.72;67.65;97961.67;105672;1281;25399;-88
2022/07/23 01:02:53;;;;;;;12.30;10.50;;;;;;;20.75;67.39;97964.36;105565;1281;22551;-91
2022/07/23 01:05:22;;;;;;;13.00;10.40;;;;;;;20.67;67.16;97966.26;105571;1281;22591;-91
2022/07/23 01:07:51;;;;;;;12.70;10.70;;;;;;;20.54;67.31;97966.81;105688;1281;22712;-90
2022/07/23 01:10:34;;;;;;;12.20;11.00;;;;;;;20.51;67.33;97962.03;105946;1281;26867;-90
2022/07/23 01:13:08;;;;;;;12.40;11.20;;;;;;;20.52;67.83;97960.42;106039;1280;24195;-91
2022/07/23 01:15:38;;;;;;;10.90;9.90;;;;;;;20.61;68.07;97957.64;105798;1280;24169;-91
2022/07/23 01:18:09;;;;;;;11.60;10.40;;;;;;;20.73;67.75;97959.19;105901;1280;25476;-92
2022/07/23 01:20:38;;;;;;;11.20;10.00;;;;;;;20.81;67.55;97959.17;105971;1280;26098;-92
2022/07/23 01:23:08;;;;;;;11.70;9.90;;;;;;;20.88;67.27;97955.45;105993;1280;22563;-90
2022/07/23 01:25:54;;;;;;;12.40;10.20;;;;;;;20.93;67.03;97958.11;105960;1280;25373;-92
2022/07/23 01:28:25;;;;;;;11.60;10.20;;;;;;;20.83;66.99;97960.99;105918;1281;22651;-90
2022/07/23 01:30:54;;;;;;;12.40;10.40;;;;;;;20.64;67.12;97958.55;105895;1280;22717;-91
2022/07/23 01:33:22;;;;;;;10.90;9.80;;;;;;;20.51;67.25;97958.21;105722;1281;24255;-91
2022/07/23 01:35:50;;;;;;;11.90;10.60;;;;;;;20.47;67.36;97957.11;105999;1280;22662;-91
2022/07/23 01:38:22;;;;;;;11.00;9.80;;;;;;;20.47;67.37;97956.10;105735;1282;23775;-90
2022/07/23 01:40:51;;;;;;;10.50;9.10;;;;;;;20.51;67.58;97951.55;105780;1281;22544;-90
2022/07/23 01:43:24;;;;;;;10.80;9.70;;;;;;;20.62;67.50;97949.20;105636;1281;22674;-92
2022/07/23 01:45:54;;;;;;;11.40;10.00;;;;;;;20.68;67.30;97954.46;105510;1283;24346;-90
2022/07/23 01:48:23;;;;;;;10.00;9.00;;;;;;;20.73;67.79;97950.41;105667;1282;24271;-89
2022/07/23 01:51:23;;;;;;;9.40;8.50;;;;;;;20.84;67.44;97945.68;105406;1280;23945;-90
2022/07/23 01:54:02;;;;;;;10.00;9.00;;;;;;;20.87;67.21;97944.33;105715;1280;24294;-90
2022/07/23 01:56:30;;;;;;;9.80;8.70;;;;;;;20.87;67.01;97937.42;105482;1280;225590;-90
2022/07/23 01:58:58;;;;;;;9.90;8.90;;;;;;;20.90;67.06;97940.61;105623;1282;23550;-90
2022/07/23 02:01:27;;;;;;;10.30;8.60;;;;;;;20.93;66.95;97940.27;105908;1280;22800;-89
2022/07/23 02:03:56;;;;;;;10.30;8.70;;;;;;;20.94;66.73;97940.45;105676;1280;25361;-90
2022/07/23 02:06:24;;;;;;;10.00;8.80;;;;;;;20.89;66.63;97943.73;105911;1280;24802;-93
2022/07/23 02:08:52;;;;;;;10.40;9.30;;;;;;;20.82;66.68;97946.52;105665;1281;22559;-92
2022/07/23 02:11:22;;;;;;;10.60;9.50;;;;;;;20.66;66.50;97945.14;105703;1283;23429;-91
2022/07/23 02:13:50;;;;;;;9.90;9.00;;;;;;;20.40;66.53;97946.42;106059;1280;22573;-91
2022/07/23 02:16:18;;;;;;;10.10;9.00;;;;;;;20.26;66.85;97950.46;105741;1281;25389;-91
2022/07/23 02:18:46;;;;;;;11.00;9.00;;;;;;;20.23;67.18;97950.93;105285;1282;23199;-91
2022/07/23 02:21:14;;;;;;;9.80;8.80;;;;;;;20.28;67.01;97952.69;105694;1281;22735;-90
2022/07/23 02:23:42;;;;;;;11.00;9.40;;;;;;;20.37;67.14;97950.20;105567;1281;25361;-91
2022/07/23 02:26:11;;;;;;;10.10;9.00;;;;;;;20.40;66.74;97953.77;105365;1281;26513;-89
2022/07/23 02:28:45;;;;;;;9.80;8.90;;;;;;;20.26;66.23;97959.21;105282;1282;22668;-89
2022/07/23 02:31:13;;;;;;;11.00;9.10;;;;;;;20.07;66.28;97961.80;105178;1281;25777;-90
2022/07/23 02:33:41;;;;;;;10.00;9.00;;;;;;;19.91;66.69;97961.95;105326;1282;25535;-90
2022/07/23 02:36:09;;;;;;;10.50;8.90;;;;;;;19.88;67.20;97964.08;105726;1281;22540;-89
2022/07/23 02:38:37;;;;;;;9.30;8.40;;;;;;;19.96;67.39;97969.30;105514;1281;22566;-90
2022/07/23 02:41:05;;;;;;;9.00;8.00;;;;;;;20.06;67.23;97968.20;105471;1283;22548;-90
2022/07/23 02:43:33;;;;;;;9.30;8.30;;;;;;;20.16;67.26;97969.09;105553;1283;24122;-90
2022/07/23 02:46:01;;;;;;;9.40;8.50;;;;;;;20.24;66.97;97967.55;105539;1281;25361;-90
2022/07/23 02:48:30;;;;;;;10.10;9.10;;;;;;;20.27;66.87;97966.44;105677;1280;25343;-91
2022/07/23 02:51:01;;;;;;;10.40;8.20;;;;;;;20.28;66.86;97964.56;105495;1280;23104;-91
2022/07/23 02:53:34;;;;;;;9.20;8.40;;;;;;;20.33;67.27;97962.77;106040;1280;22627;-92
2022/07/23 02:56:02;;;;;;;9.80;8.70;;;;;;;20.35;66.79;97964.24;106037;1280;22885;-93
2022/07/23 02:58:30;;;;;;;9.80;8.70;;;;;;;20.31;66.75;97960.16;106051;1280;22603;-92
2022/07/23 03:00:58;;;;;;;8.90;8.10;;;;;;;20.31;66.96;97958.13;105794;1280;22653;-92
2022/07/23 03:03:27;;;;;;;10.00;8.90;;;;;;;20.38;67.28;97955.08;105601;1280;26625;-90
2022/07/23 03:05:57;;;;;;;9.00;7.80;;;;;;;20.47;66.90;97953.52;105937;1280;22806;-91
2022/07/23 03:08:25;;;;;;;11.30;8.60;;;;;;;20.45;66.58;97949.58;106435;1280;22703;-91
2022/07/23 03:10:53;;;;;;;9.90;8.90;;;;;;;20.40;66.63;97946.91;107136;1279;22929;-93
2022/07/23 03:13:46;;;;;;;9.50;8.50;;;;;;;20.40;66.56;97941.81;106918;1280;22571;-91
2022/07/23 03:16:14;;;;;;;8.80;7.80;;;;;;;20.36;66.52;97939.16;108723;1280;22479;-90
2022/07/23 03:19:08;;;;;;;9.00;8.10;;;;;;;20.30;66.40;97936.15;108394;1280;23964;-92
2022/07/23 03:21:40;;;;;;;10.30;9.30;;;;;;;20.17;66.31;97942.23;107499;1280;23881;-92
2022/07/23 03:24:09;;;;;;;10.70;9.40;;;;;;;20.02;66.40;97938.25;106306;1280;22717;-93
2022/07/23 03:26:37;;;;;;;10.00;8.90;;;;;;;19.88;66.66;97943.37;106382;1280;23167;-93
2022/07/23 03:29:06;;;;;;;11.80;8.90;;;;;;;19.81;66.81;97943.69;106351;1280;22688;-93
2022/07/23 03:31:34;;;;;;;10.70;8.30;;;;;;;19.84;67.14;97938.91;106584;1280;22561;-92
2022/07/23 03:34:03;;;;;;;9.80;8.80;;;;;;;19.94;67.06;97938.10;106042;1280;22710;-92
2022/07/23 03:36:31;;;;;;;10.10;8.80;;;;;;;20.02;66.91;97935.30;106098;1280;22646;-92
2022/07/23 03:38:59;;;;;;;9.90;8.90;;;;;;;20.05;66.79;97940.42;106143;1280;23209;-93
2022/07/23 03:41:30;;;;;;;9.90;9.00;;;;;;;20.05;66.72;97939.87;106570;1280;24128;-93
2022/07/23 03:43:58;;;;;;;9.80;8.80;;;;;;;20.01;66.72;97945.19;106180;1280;22558;-92
2022/07/23 03:46:28;;;;;;;10.60;8.90;;;;;;;19.92;66.59;97947.28;106352;1280;22562;-93
2022/07/23 03:48:56;;;;;;;10.30;8.70;;;;;;;19.92;66.98;97946.33;106505;1280;22553;-92
2022/07/23 03:51:26;;;;;;;10.10;9.00;;;;;;;20.02;67.12;97946.07;106443;1280;22752;-93
2022/07/23 03:53:55;;;;;;;10.40;9.50;;;;;;;20.03;66.88;97949.45;106017;1283;22885;-93
2022/07/23 03:56:23;;;;;;;12.90;10.10;;;;;;;19.87;67.15;97954.20;106244;1280;22642;-93
2022/07/23 03:58:51;;;;;;;10.60;9.50;;;;;;;19.76;67.26;97946.77;106278;1280;23091;-93
2022/07/23 04:01:19;;;;;;;10.00;9.00;;;;;;;19.77;67.58;97945.46;106101;1281;22720;-93
2022/07/23 04:03:48;;;;;;;9.80;8.80;;;;;;;19.93;68.43;97939.40;106274;1280;25654;-93
2022/07/23 04:06:16;;;;;;;11.00;9.90;;;;;;;20.20;68.65;97931.89;106201;1280;22556;-93
2022/07/23 04:08:44;;;;;;;10.70;9.20;;;;;;;20.41;68.34;97926.52;106336;1280;22560;-93
2022/07/23 04:11:12;;;;;;;11.10;9.40;;;;;;;20.56;67.73;97925.71;106047;1281;22657;-92
2022/07/23 04:13:40;;;;;;;10.80;8.90;;;;;;;20.68;67.47;97929.89;106114;1281;22730;-92
2022/07/23 04:16:09;;;;;;;14.00;10.20;;;;;;;20.74;67.59;97930.40;106525;1280;25356;-95
2022/07/23 04:18:37;;;;;;;12.90;11.30;;;;;;;20.74;67.06;97932.05;106048;1281;22706;-92
2022/07/23 04:21:10;;;;;;;12.90;11.00;;;;;;;20.56;66.98;97935.66;108429;1280;22607;-91
2022/07/23 04:23:38;;;;;;;11.30;10.10;;;;;;;20.57;68.04;97928.54;108613;1281;23947;-92
2022/07/23 04:26:07;;;;;;;14.40;11.70;;;;;;;20.75;68.39;97923.47;107891;1280;22563;-92
2022/07/23 04:28:35;;;;;;;15.10;11.40;;;;;;;20.94;67.82;97925.81;106224;1280;22492;-92
2022/07/23 04:31:04;;;;;;;14.50;11.70;;;;;;;20.97;67.34;97934.94;106581;1280;23909;-92
2022/07/23 04:33:33;;;;;;;18.90;13.10;;;;;;;20.93;67.47;97944.34;106482;1280;25380;-93
2022/07/23 04:36:05;;;;;;;12.60;11.40;;;;;;;20.93;68.17;97937.23;106493;1280;25522;-92
2022/07/23 04:38:33;;;;;;;14.50;11.40;;;;;;;21.11;68.63;97925.92;106683;1280;22673;-92
2022/07/23 04:41:03;;;;;;;13.30;11.60;;;;;;;21.38;68.26;97924.54;106672;1280;23124;-92
2022/07/23 04:43:31;;;;;;;13.10;11.70;;;;;;;21.53;67.68;97931.43;106749;1280;22810;-93
2022/07/23 04:46:29;;;;;;;12.10;10.50;;;;;;;21.58;67.59;97930.41;106508;1281;22489;-93
2022/07/23 04:48:57;;;;;;;14.00;11.70;;;;;;;21.77;67.81;97920.71;106740;1282;22575;-94
2022/07/23 04:51:28;;;;;;;15.00;12.60;;;;;;;21.93;67.40;97924.67;107089;1280;23428;-93
2022/07/23 04:53:57;;;;;;;13.90;12.40;;;;;;;21.86;67.43;97926.30;107170;1280;26567;-94
2022/07/23 04:56:25;;;;;;;16.70;14.10;;;;;;;21.78;67.75;97921.10;107145;1280;22721;-92
2022/07/23 04:58:53;;;;;;;16.00;14.50;;;;;;;21.77;67.89;97921.02;106874;1280;24251;-93
2022/07/23 05:02:14;;;;;;;17.10;15.30;;;;;;;21.80;67.98;97923.95;106641;1280;24241;-93
2022/07/23 05:04:42;;;;;;;18.90;14.30;;;;;;;21.92;67.91;97924.51;107118;1280;23416;-92
2022/07/23 05:07:12;;;;;;;23.60;17.70;;;;;;;22.05;67.99;97923.95;106838;1280;23964;-92
2022/07/23 05:09:40;;;;;;;20.50;18.60;;;;;;;22.16;67.90;97921.90;105759;1280;25527;-90
2022/07/23 05:12:08;;;;;;;21.70;19.40;;;;;;;22.28;67.85;97926.68;105432;1280;22481;-91
2022/07/23 05:14:37;;;;;;;20.60;18.40;;;;;;;22.37;68.12;97930.92;105531;1280;24219;-91
2022/07/23 05:17:07;;;;;;;19.20;17.40;;;;;;;22.48;68.47;97928.55;105906;1280;22644;-92
2022/07/23 05:19:35;;;;;;;20.40;17.30;;;;;;;22.66;68.40;97929.73;105612;1280;24304;-91
2022/07/23 05:22:03;;;;;;;19.20;17.40;;;;;;;22.86;68.41;97930.08;105421;1282;24155;-92
2022/07/23 05:24:33;;;;;;;22.60;19.70;;;;;;;22.99;68.23;97934.77;105582;1281;25359;-92
2022/07/23 05:27:02;;;;;;;20.40;18.30;;;;;;;23.02;68.06;97933.91;105943;1281;25337;-90
2022/07/23 05:29:30;;;;;;;21.50;19.30;;;;;;;23.02;68.23;97932.52;106242;1281;25387;-91
2022/07/23 05:31:58;;;;;;;17.60;15.80;;;;;;;23.04;68.35;97930.64;105834;1281;22548;-90
2022/07/23 05:34:28;;;;;;;20.10;18.10;;;;;;;23.16;68.36;97929.78;105391;1282;26603;-92
2022/07/23 05:36:56;;;;;;;22.20;18.70;;;;;;;23.21;68.20;97930.85;105704;1281;25651;-90
2022/07/23 05:39:55;;;;;;;22.80;19.20;;;;;;;23.13;68.03;97932.13;105373;1281;23254;-90
2022/07/23 05:42:23;;;;;;;24.80;18.40;;;;;;;23.03;67.93;97929.92;105660;1281;24384;-89
2022/07/23 05:44:51;;;;;;;26.90;19.70;;;;;;;23.04;68.15;97930.80;105575;1281;25365;-90
2022/07/23 05:47:19;;;;;;;22.50;17.10;;;;;;;23.04;67.73;97929.86;105619;1281;25329;-90
2022/07/23 05:49:47;;;;;;;23.70;17.00;;;;;;;23.07;67.40;97924.46;105299;1281;23368;-90
2022/07/23 05:52:30;;;;;;;19.40;17.10;;;;;;;23.10;66.74;97922.77;105419;1281;22778;-91
2022/07/23 05:55:19;;;;;;;21.80;17.10;;;;;;;23.06;66.31;97921.94;105744;1281;25360;-91
2022/07/23 05:57:47;;;;;;;20.60;17.30;;;;;;;23.06;66.12;97919.11;105698;1281;22566;-91
2022/07/23 06:00:16;;;;;;;16.80;14.90;;;;;;;23.12;66.15;97913.20;105753;1281;24093;-90
2022/07/23 06:02:45;;;;;;;20.70;16.90;;;;;;;23.28;65.76;97908.52;105614;1283;23120;-91
2022/07/23 06:05:19;;;;;;;18.40;16.30;;;;;;;23.40;65.58;97904.98;105616;1283;24314;-92
2022/07/23 06:07:47;;;;;;;25.20;17.00;;;;;;;23.52;65.50;97903.79;105952;1281;26673;-92
2022/07/23 06:10:16;;;;;;;19.10;16.30;;;;;;;23.64;65.39;97900.24;106211;1281;22629;-89
2022/07/23 06:12:44;;;;;;;18.40;16.40;;;;;;;23.71;65.23;97890.70;105308;1282;22651;-89
2022/07/23 06:15:12;;;;;;;19.70;16.20;;;;;;;23.81;65.04;97887.46;105328;1282;22564;-89
2022/07/23 06:17:40;;;;;;;20.30;15.80;;;;;;;23.97;65.02;97887.75;105672;1281;22892;-89
2022/07/23 06:20:10;;;;;;;18.90;16.90;;;;;;;24.12;64.67;97884.73;105673;1281;25408;-89
2022/07/23 06:22:39;;;;;;;21.40;15.80;;;;;;;24.25;64.46;97884.06;105540;1281;22607;-89
2022/07/23 06:25:08;;;;;;;18.30;15.60;;;;;;;24.40;64.30;97881.35;105557;1281;22559;-89
2022/07/23 06:27:47;;;;;;;22.30;17.10;;;;;;;24.57;64.23;97878.88;105350;1282;24800;-88
2022/07/23 06:34:29;;;;;;;22.80;15.70;;;;;;;24.91;63.84;97875.11;107518;1280;22716;-89
2022/07/23 06:36:57;;;;;;;20.60;15.80;;;;;;;25.06;63.57;97874.47;105667;1281;22717;-90
2022/07/23 06:44:12;;;;;;;26.60;16.90;;;;;;;25.51;63.17;97874.09;105850;1281;22484;-88
2022/07/23 06:46:41;;;;;;;20.00;16.00;;;;;;;25.65;62.85;97877.98;105536;1282;25453;-90
2022/07/23 06:49:10;;;;;;;20.20;15.50;;;;;;;25.73;62.01;97874.27;105482;1283;24091;-87
2022/07/23 06:56:23;;;;;;;16.30;14.60;;;;;;;26.05;62.00;97872.73;105705;1281;24300;-89
2022/07/23 06:58:51;;;;;;;20.80;15.40;;;;;;;26.12;61.00;97868.52;105476;1281;22685;-89
2022/07/23 07:05:45;;;;;;;17.00;14.80;;;;;;;26.43;61.21;97862.71;105635;1281;25195;-87
2022/07/23 07:12:59;;;;;;;15.80;14.00;;;;;;;26.79;60.13;97862.31;105610;1281;22711;-89
2022/07/23 07:15:27;;;;;;;17.60;14.20;;;;;;;26.87;59.81;97863.90;105593;1281;22577;-88
2022/07/23 07:17:55;;;;;;;16.90;13.70;;;;;;;26.94;59.47;97864.55;105447;1282;23509;-90
2022/07/23 07:20:49;;;;;;;14.90;13.40;;;;;;;27.03;59.54;97862.73;106007;1280;22703;-90
2022/07/23 07:23:18;;;;;;;18.60;13.90;;;;;;;27.16;59.14;97863.27;105328;1281;24405;-89
2022/07/23 07:26:46;;;;;;;16.70;13.20;;;;;;;27.25;58.83;97862.64;105669;1281;22538;-89
2022/07/23 07:30:41;;;;;;;14.00;12.60;;;;;;;27.38;58.84;97865.04;106078;1281;25928;-88
2022/07/23 07:34:31;;;;;;;12.90;10.10;;;;;;;27.68;58.06;97876.89;105990;1281;22575;-87
2022/07/23 07:38:19;;;;;;;12.80;10.90;;;;;;;27.86;57.22;97869.73;106217;1281;23221;-89
2022/07/23 07:41:28;;;;;;;16.30;10.20;;;;;;;28.08;56.87;97869.68;106094;1282;22553;-87
2022/07/23 07:43:56;;;;;;;15.90;12.00;;;;;;;28.20;56.21;97867.46;105844;1281;25841;-89
2022/07/23 07:46:24;;;;;;;14.30;12.00;;;;;;;28.30;56.14;97867.16;105971;1282;23309;-89
2022/07/23 07:48:52;;;;;;;11.70;10.50;;;;;;;28.41;55.81;97868.67;105866;1282;22712;-89
2022/07/23 07:51:26;;;;;;;11.70;10.60;;;;;;;28.49;55.35;97868.80;105886;1282;25313;-92
2022/07/23 07:53:54;;;;;;;12.90;11.50;;;;;;;28.59;55.00;97873.80;105880;1282;22866;-91
2022/07/23 07:56:22;;;;;;;13.20;11.60;;;;;;;28.67;54.01;97876.46;106182;1283;22563;-90
2022/07/23 07:58:51;;;;;;;13.90;10.30;;;;;;;28.69;53.48;97873.26;107358;1282;22693;-93
2022/07/23 08:01:20;;;;;;;12.50;11.20;;;;;;;28.76;53.87;97877.25;107180;1282;25585;-90
2022/07/23 08:03:48;;;;;;;13.70;10.80;;;;;;;28.85;52.92;97879.64;106531;1283;23129;-92
2022/07/23 08:06:17;;;;;;;19.70;10.00;;;;;;;28.96;52.23;97886.59;107107;1283;22702;-90
2022/07/23 08:08:48;;;;;;;17.60;9.80;;;;;;;29.03;51.71;97890.05;108344;1282;23532;-91
2022/07/23 08:11:16;;;;;;;13.40;10.60;;;;;;;29.05;50.43;97880.13;108101;1282;23918;-91
2022/07/23 08:13:44;;;;;;;11.80;10.50;;;;;;;29.03;50.42;97880.33;105926;1282;24761;-88
2022/07/23 08:16:12;;;;;;;15.60;10.60;;;;;;;29.07;51.02;97881.36;105474;1283;23949;-87
2022/07/23 08:18:40;;;;;;;12.40;10.40;;;;;;;29.07;49.44;97888.84;105458;1282;25480;-85
2022/07/23 08:21:09;;;;;;;15.50;11.20;;;;;;;29.09;50.35;97891.96;105233;1283;25635;-86
2022/07/23 08:23:37;;;;;;;12.80;10.60;;;;;;;29.18;50.10;97896.32;105307;1283;23261;-87
2022/07/23 08:26:05;;;;;;;13.70;10.10;;;;;;;29.19;49.89;97892.91;105458;1283;23381;-90
2022/07/23 08:28:33;;;;;;;11.50;10.40;;;;;;;29.25;50.40;97891.29;105443;1282;22484;-89
2022/07/23 08:31:01;;;;;;;11.90;10.50;;;;;;;29.34;50.26;97879.77;105320;1283;25365;-85
2022/07/23 08:33:30;;;;;;;12.90;11.30;;;;;;;29.40;49.55;97882.11;105190;1283;22547;-82
2022/07/23 08:36:03;;;;;;;17.30;10.80;;;;;;;29.34;49.02;97880.02;105533;1282;22554;-84
2022/07/23 08:38:33;;;;;;;16.60;10.70;;;;;;;29.33;48.89;97870.29;105685;1283;22679;-81
2022/07/23 08:41:02;;;;;;;16.00;11.20;;;;;;;29.38;49.02;97863.20;105405;1282;25406;-83
2022/07/23 08:43:33;;;;;;;14.80;10.30;;;;;;;29.51;49.31;97855.68;105476;1282;24794;-82
2022/07/23 08:46:03;;;;;;;15.50;10.10;;;;;;;29.67;49.03;97847.60;105435;1283;22556;-83
2022/07/23 08:48:38;;;;;;;12.20;9.70;;;;;;;29.80;48.77;97841.15;105474;1283;22865;-84
2022/07/23 08:51:07;;;;;;;13.00;9.80;;;;;;;29.92;48.95;97837.32;105470;1282;22825;-83
2022/07/23 08:53:41;;;;;;;13.40;9.90;;;;;;;30.07;48.24;97841.77;105597;1282;25252;-83
2022/07/23 08:56:09;;;;;;;14.70;9.30;;;;;;;30.23;48.68;97841.49;105347;1283;24297;-82
2022/07/23 08:58:37;;;;;;;11.60;9.40;;;;;;;30.35;47.63;97841.25;105978;1282;22520;-82
2022/07/23 09:01:06;;;;;;;14.40;9.60;;;;;;;30.41;48.04;97839.59;105618;1283;22701;-82
2022/07/23 09:03:38;;;;;;;11.20;9.10;;;;;;;30.55;47.71;97839.97;105613;1284;25617;-83
2022/07/23 09:06:06;;;;;;;9.50;7.40;;;;;;;30.72;47.08;97835.28;105591;1283;22760;-81
2022/07/23 09:08:43;;;;;;;13.30;7.90;;;;;;;30.84;46.00;97835.02;105615;1282;22868;-83
2022/07/23 09:11:17;;;;;;;11.40;6.90;;;;;;;30.90;45.22;97837.08;105800;1283;22626;-91
2022/07/23 09:13:48;;;;;;;8.80;6.90;;;;;;;31.05;43.99;97843.45;105855;1284;23955;-91
2022/07/23 09:17:07;;;;;;;10.20;6.90;;;;;;;31.26;44.09;97839.55;105864;1282;24373;-87
2022/07/23 09:19:36;;;;;;;7.70;6.60;;;;;;;31.66;40.99;97839.66;105814;1282;25396;-87
2022/07/23 09:22:28;;;;;;;9.10;6.80;;;;;;;32.17;39.72;97846.38;105813;1283;25359;-85
2022/07/23 09:25:05;;;;;;;11.00;6.40;;;;;;;32.67;37.93;97847.79;105719;1282;23997;-87
2022/07/23 09:27:57;;;;;;;9.80;6.90;;;;;;;32.94;38.35;97846.56;105950;1282;24277;-88
2022/07/23 09:30:27;;;;;;;10.10;7.20;;;;;;;33.05;38.31;97844.18;105791;1282;25298;-86
2022/07/23 09:33:15;;;;;;;13.00;6.90;;;;;;;32.86;37.24;97844.14;105860;1283;22628;-88
2022/07/23 09:35:55;;;;;;;7.30;5.90;;;;;;;32.75;38.23;97840.33;105946;1282;22712;-89
2022/07/23 09:39:15;;;;;;;7.50;5.70;;;;;;;32.92;37.23;97841.46;105674;1283;22711;-88
2022/07/23 09:41:47;;;;;;;8.20;6.10;;;;;;;33.39;37.59;97839.79;106205;1282;22646;-88
2022/07/23 09:44:20;;;;;;;8.80;5.90;;;;;;;33.34;37.15;97845.85;106074;1282;22707;-90
2022/07/23 09:47:00;;;;;;;7.90;5.60;;;;;;;33.09;36.65;97840.37;106218;1282;24760;-91
2022/07/23 09:49:29;;;;;;;;;;;;;;;33.03;37.17;97837.85;105777;1282;24335;-86
2022/07/23 09:52:01;;;;;;;8.00;5.50;;;;;;;33.05;35.85;97837.39;105698;1282;22614;-86
2022/07/23 09:54:35;;;;;;;10.10;5.70;;;;;;;32.94;35.37;97842.97;105498;1282;22797;-89
2022/07/23 09:57:12;;;;;;;9.20;5.40;;;;;;;32.89;35.02;97848.76;105827;1282;23933;-89
2022/07/23 09:59:47;;;;;;;7.80;5.30;;;;;;;32.59;34.98;97846.55;105818;1282;24352;-88
2022/07/23 10:02:16;;;;;;;8.10;6.90;;;;;;;32.54;34.82;97836.17;105377;1283;22561;-83
2022/07/23 10:05:06;;;;;;;9.80;5.50;;;;;;;32.56;32.90;97833.55;105300;1283;25415;-88
2022/07/23 10:07:52;;;;;;;10.30;5.90;;;;;;;32.57;34.39;97830.27;105434;1283;22547;-88
2022/07/23 10:10:40;;;;;;;7.60;5.70;;;;;;;32.88;35.18;97832.90;105184;1285;25376;-89
2022/07/23 10:16:28;;;;;;;9.60;5.80;;;;;;;33.22;34.33;97829.23;105699;1282;22628;-92
2022/07/23 10:18:57;;;;;;;8.50;5.90;;;;;;;33.23;34.42;97828.63;105525;1282;25372;-90
2022/07/23 10:21:35;;;;;;;9.00;6.00;;;;;;;33.28;33.82;97830.86;105879;1282;24551;-92
2022/07/23 10:24:34;;;;;;;10.40;5.50;;;;;;;33.19;33.88;97825.11;105983;1282;24313;-87
2022/07/23 10:27:21;;;;;;;11.00;5.30;;;;;;;33.13;33.90;97823.32;105541;1282;25456;-89
2022/07/23 10:29:58;;;;;;;7.70;5.50;;;;;;;33.17;34.15;97828.05;105546;1283;25420;-89
2022/07/23 10:32:37;;;;;;;7.80;5.90;;;;;;;33.37;33.59;97824.94;105481;1282;25356;-88
2022/07/23 10:35:09;;;;;;;7.70;5.40;;;;;;;33.35;33.42;97824.30;105456;1283;23862;-89
2022/07/23 10:37:43;;;;;;;9.70;6.30;;;;;;;33.39;33.56;97819.19;105451;1281;25361;-89
2022/07/23 10:40:23;;;;;;;11.60;6.10;;;;;;;33.46;33.62;97819.82;105810;1282;22700;-88
2022/07/23 10:42:52;;;;;;;8.70;5.80;;;;;;;33.49;33.86;97820.75;106357;1282;24324;-90
2022/07/23 10:45:34;;;;;;;7.50;5.60;;;;;;;33.58;33.48;97818.45;105441;1282;22592;-91
2022/07/23 10:48:13;;;;;;;8.80;6.10;;;;;;;33.75;33.20;97811.45;105473;1282;22538;-89
2022/07/23 10:50:44;;;;;;;10.60;5.80;;;;;;;33.82;33.46;97808.38;105507;1282;25475;-89
2022/07/23 10:53:16;;;;;;;7.60;5.40;;;;;;;33.86;32.94;97806.39;105446;1282;23018;-89
2022/07/23 10:55:59;;;;;;;7.60;5.50;;;;;;;33.82;33.33;97801.81;105483;1283;24265;-89
2022/07/23 10:58:47;;;;;;;10.60;5.80;;;;;;;33.99;33.46;97801.92;105512;1283;24267;-88
2022/07/23 11:01:38;;;;;;;7.90;4.90;;;;;;;34.04;31.73;97807.63;105368;1283;24281;-89
2022/07/23 11:04:07;;;;;;;7.70;5.20;;;;;;;33.85;31.23;97805.14;105402;1284;22732;-89
2022/07/23 11:06:48;;;;;;;10.50;5.40;;;;;;;33.80;31.00;97807.34;105512;1284;25337;-89
2022/07/23 11:09:42;;;;;;;6.60;5.00;;;;;;;33.60;30.53;97806.02;105975;1283;22631;-90
2022/07/23 11:12:13;;;;;;;8.70;5.00;;;;;;;33.54;29.82;97805.45;105442;1283;22903;-89
2022/07/23 11:15:02;;;;;;;7.00;5.10;;;;;;;33.51;30.22;97798.75;105393;1283;22554;-89
2022/07/23 11:17:31;;;;;;;8.10;5.10;;;;;;;33.55;30.48;97793.25;105291;1283;25361;-91
2022/07/23 11:20:08;;;;;;;8.80;4.70;;;;;;;33.53;29.17;97792.70;105428;1283;22785;-92
2022/07/23 11:22:46;;;;;;;6.20;4.40;;;;;;;33.55;29.75;97789.27;105493;1284;24107;-89
2022/07/23 11:25:31;;;;;;;8.20;4.60;;;;;;;33.71;30.31;97784.70;105612;1283;26540;-89
2022/07/23 11:28:20;;;;;;;8.80;4.70;;;;;;;33.92;29.53;97782.19;105438;1284;25457;-89
2022/07/23 11:30:49;;;;;;;6.40;4.40;;;;;;;34.14;30.39;97773.23;105372;1284;25206;-87
2022/07/23 11:33:19;;;;;;;10.00;5.40;;;;;;;34.41;29.17;97774.67;105404;1284;22733;-87
2022/07/23 11:36:00;;;;;;;8.10;4.90;;;;;;;34.45;28.15;97782.69;105456;1284;25520;-89
2022/07/23 11:38:31;;;;;;;9.50;5.70;;;;;;;34.15;28.19;97784.70;105471;1284;25295;-89
2022/07/23 11:40:59;;;;;;;10.20;5.40;;;;;;;33.99;28.82;97783.38;105954;1282;22614;-90
2022/07/23 11:43:27;;;;;;;7.30;4.90;;;;;;;33.98;28.91;97784.39;107111;1283;23164;-88
2022/07/23 11:46:00;;;;;;;9.70;5.10;;;;;;;33.98;29.07;97778.45;105432;1284;24250;-89
2022/07/23 11:48:30;;;;;;;9.40;5.50;;;;;;;34.16;29.35;97770.44;105433;1284;22719;-89
2022/07/23 11:51:02;;;;;;;6.90;4.40;;;;;;;34.39;29.28;97761.25;105083;1284;24297;-88
2022/07/23 11:54:05;;;;;;;6.70;5.00;;;;;;;34.71;29.36;97756.45;105379;1284;22589;-89
2022/07/23 11:56:33;;;;;;;8.20;5.20;;;;;;;35.02;29.59;97755.27;105368;1284;24280;-90
2022/07/23 11:59:01;;;;;;;6.10;4.90;;;;;;;35.35;29.54;97749.28;105388;1284;24328;-87
2022/07/23 12:02:25;;;;;;;8.30;5.50;;;;;;;35.71;29.49;97744.52;105083;1285;22699;-88
2022/07/23 12:04:54;;;;;;;7.20;5.10;;;;;;;35.98;29.02;97740.23;105464;1283;22566;-90
2022/07/23 12:07:26;;;;;;;7.50;5.10;;;;;;;36.03;27.86;97745.55;105398;1284;22551;-90
2022/07/23 12:13:39;;;;;;;12.30;5.30;;;;;;;35.76;27.21;97740.44;105442;1282;22732;-91
2022/07/23 12:16:08;;;;;;;6.80;5.30;;;;;;;35.49;27.26;97735.52;105377;1283;22708;-91